createdAt,value
2022-12-16T00:07:21.375Z,100777.22
2022-12-16T00:14:56.769Z,100792.69
2022-12-16T00:22:30.813Z,100785.31
2022-12-16T00:30:07.128Z,100792.47
2022-12-16T00:37:41.277Z,100804.31
2022-12-16T00:45:16.685Z,100820.28
2022-12-16T00:52:50.491Z,100816.13
2022-12-16T01:00:26.347Z,100812.00
2022-12-16T01:08:00.102Z,100809.13
2022-12-16T01:15:35.273Z,100806.41
2022-12-16T01:23:09.516Z,100814.97
2022-12-16T01:30:44.991Z,100809.28
2022-12-16T01:38:19.020Z,100809.16
2022-12-16T01:45:58.179Z,100809.66
2022-12-16T01:53:32.974Z,100812.13
2022-12-16T02:01:09.171Z,100809.28
2022-12-16T02:08:43.433Z,100807.34
2022-12-16T02:16:26.036Z,100810.34
2022-12-16T02:24:29.274Z,100814.47
2022-12-16T02:32:11.618Z,100807.88
2022-12-16T02:39:52.690Z,100810.56
2022-12-16T02:47:29.496Z,100807.97
2022-12-16T02:55:07.798Z,100800.84
2022-12-16T03:02:54.303Z,100798.66
2022-12-16T03:10:33.776Z,100791.00
2022-12-16T03:18:11.481Z,100800.06
2022-12-16T03:25:49.190Z,100783.34
2022-12-16T03:33:31.021Z,100776.22
2022-12-16T03:41:08.669Z,100781.75
2022-12-16T03:48:50.031Z,100768.53
2022-12-16T03:56:23.730Z,100782.41
2022-12-16T04:03:59.034Z,100773.63
2022-12-16T04:11:50.443Z,100790.72
2022-12-16T04:19:46.305Z,100788.63
2022-12-16T04:27:25.916Z,100804.19
2022-12-16T04:35:15.155Z,100804.97
2022-12-16T04:43:06.921Z,100805.13
2022-12-16T04:50:59.379Z,100815.22
2022-12-16T04:58:50.717Z,100820.41
2022-12-16T05:06:43.590Z,100817.03
2022-12-16T05:14:34.875Z,100818.41
2022-12-16T05:22:27.368Z,100820.47
2022-12-16T05:30:33.368Z,100833.00
2022-12-16T05:38:26.448Z,100833.03
2022-12-16T05:46:17.987Z,100842.13
2022-12-16T05:54:10.554Z,100853.72
2022-12-16T06:02:02.258Z,100858.00
2022-12-16T06:09:56.902Z,100871.59
2022-12-16T06:17:48.402Z,100892.84
2022-12-16T06:25:37.598Z,100903.88
2022-12-16T06:33:29.136Z,100915.13
2022-12-16T06:41:22.420Z,100927.88
2022-12-16T06:49:14.292Z,100929.69
2022-12-16T06:57:06.875Z,100942.75
2022-12-16T07:04:58.382Z,100949.13
2022-12-16T07:12:51.137Z,100950.94
2022-12-16T07:20:42.346Z,100975.78
2022-12-16T07:28:35.200Z,100997.63
2022-12-16T07:36:27.042Z,101011.81
2022-12-16T07:44:19.952Z,101018.88
2022-12-16T07:52:12.797Z,101042.47
2022-12-16T08:00:05.244Z,101048.34
2022-12-16T08:07:58.481Z,101054.16
2022-12-16T08:15:51.157Z,101053.19
2022-12-16T08:23:42.328Z,101069.81
2022-12-16T08:31:35.445Z,101075.44
2022-12-16T08:39:26.670Z,101077.09
2022-12-16T08:47:19.324Z,101067.25
2022-12-16T08:55:11.801Z,101075.75
2022-12-16T09:03:04.559Z,101076.97
2022-12-16T09:10:56.110Z,101071.06
2022-12-16T09:18:49.105Z,101082.41
2022-12-16T09:26:40.708Z,101078.00
2022-12-16T09:34:33.208Z,101089.91
2022-12-16T09:42:31.587Z,101094.69
2022-12-16T09:50:37.954Z,101091.34
2022-12-16T09:58:31.556Z,101085.81
2022-12-16T10:06:33.665Z,101095.06
2022-12-16T10:14:32.706Z,101090.38
2022-12-16T10:22:34.460Z,101083.19
2022-12-16T10:30:31.749Z,101071.09
2022-12-16T10:38:33.100Z,101079.41
2022-12-16T10:46:31.043Z,101091.34
2022-12-16T10:54:50.687Z,101096.91
2022-12-16T11:02:45.569Z,101102.03
2022-12-16T11:10:50.749Z,101096.94
2022-12-16T11:18:42.972Z,101112.94
2022-12-16T11:26:37.919Z,101097.94
2022-12-16T11:34:30.009Z,101100.88
2022-12-16T11:42:24.976Z,101103.28
2022-12-16T11:50:17.420Z,101122.31
2022-12-16T11:58:21.584Z,101116.56
2022-12-16T12:06:25.596Z,101115.38
2022-12-16T12:14:28.814Z,101122.78
2022-12-16T12:22:23.662Z,101114.47
2022-12-16T12:30:22.629Z,101126.81
2022-12-16T12:38:21.352Z,101135.69
2022-12-16T12:46:23.476Z,101141.34
2022-12-16T12:54:26.635Z,101141.91
2022-12-16T13:02:29.429Z,101152.56
2022-12-16T13:10:33.601Z,101164.84
2022-12-16T13:18:42.366Z,101171.91
2022-12-16T13:26:35.633Z,101176.56
2022-12-16T13:34:42.562Z,101188.25
2022-12-16T13:42:51.931Z,101202.13
2022-12-16T13:50:58.213Z,101206.66
2022-12-16T13:58:55.359Z,101223.16
2022-12-16T14:06:50.005Z,101232.81
2022-12-16T14:14:46.397Z,101242.03
2022-12-16T14:22:59.115Z,101250.59
2022-12-16T14:30:51.329Z,101257.28
2022-12-16T14:38:46.171Z,101264.00
2022-12-16T14:46:45.880Z,101273.53
2022-12-16T14:54:42.454Z,101284.59
2022-12-16T15:02:45.112Z,101290.72
2022-12-16T15:10:42.729Z,101294.59
2022-12-16T15:18:39.445Z,101293.34
2022-12-16T15:26:38.362Z,101297.44
2022-12-16T15:34:40.679Z,101314.94
2022-12-16T15:42:43.070Z,101334.72
2022-12-16T15:50:37.845Z,101344.50
2022-12-16T15:58:37.875Z,101347.09
2022-12-16T16:06:35.217Z,101366.22
2022-12-16T16:14:28.203Z,101363.38
2022-12-16T16:22:19.325Z,101382.72
2022-12-16T16:30:11.764Z,101392.00
2022-12-16T16:38:03.325Z,101391.78
2022-12-16T16:45:56.242Z,101403.03
2022-12-16T16:53:47.425Z,101406.44
2022-12-16T17:01:40.329Z,101410.41
2022-12-16T17:09:30.639Z,101404.03
2022-12-16T17:17:24.655Z,101401.53
2022-12-16T17:25:16.218Z,101417.56
2022-12-16T17:33:08.800Z,101426.91
2022-12-16T17:41:00.515Z,101423.38
2022-12-16T17:48:53.220Z,101433.13
2022-12-16T17:56:44.657Z,101450.00
2022-12-16T18:04:37.745Z,101462.38
2022-12-16T18:12:28.934Z,101470.91
2022-12-16T18:20:21.831Z,101478.63
2022-12-16T18:28:14.410Z,101471.78
2022-12-16T18:36:06.123Z,101475.22
2022-12-16T18:44:05.995Z,101483.97
2022-12-16T18:51:58.624Z,101500.13
2022-12-16T18:59:50.031Z,101504.22
2022-12-16T19:07:43.365Z,101504.22
2022-12-16T19:15:40.887Z,101512.97
2022-12-16T19:23:30.593Z,101517.84
2022-12-16T19:31:22.234Z,101523.97
2022-12-16T19:39:15.185Z,101534.41
2022-12-16T19:47:06.523Z,101544.88
2022-12-16T19:54:59.956Z,101554.44
2022-12-16T20:02:51.378Z,101569.34
2022-12-16T20:10:44.369Z,101570.50
2022-12-16T20:18:35.641Z,101583.00
2022-12-16T20:26:28.521Z,101578.94
2022-12-16T20:34:21.197Z,101593.53
2022-12-16T20:42:16.410Z,101606.06
2022-12-16T20:50:07.435Z,101609.56
2022-12-16T20:58:00.212Z,101612.19
2022-12-16T21:06:08.339Z,101618.22
2022-12-16T21:14:01.134Z,101629.72
2022-12-16T21:21:52.373Z,101644.50
2022-12-16T21:29:45.984Z,101638.59
2022-12-16T21:37:37.423Z,101651.91
2022-12-16T21:45:30.834Z,101658.88
2022-12-16T21:53:22.997Z,101671.28
2022-12-16T22:01:17.241Z,101677.06
2022-12-16T22:09:09.631Z,101688.41
2022-12-16T22:17:02.421Z,101679.56
2022-12-16T22:24:56.743Z,101685.44
2022-12-16T22:32:49.475Z,101689.09
2022-12-16T22:40:40.930Z,101695.38
2022-12-16T22:48:33.571Z,101705.72
2022-12-16T22:56:25.367Z,101710.81
2022-12-16T23:04:18.185Z,101718.78
2022-12-16T23:12:09.589Z,101718.34
2022-12-16T23:20:02.019Z,101710.50
2022-12-16T23:27:53.670Z,101723.97
2022-12-16T23:35:46.340Z,101719.63
2022-12-16T23:43:37.830Z,101719.09
2022-12-16T23:51:30.818Z,101722.34
2022-12-16T23:59:22.441Z,101732.56
